Terminal Aerodrome Forecast
Issued by NWS Shreveport, LA

Home | Current Version | Previous Version | Text Only | Print | Product List | Glossary On
Versions: 1 2 3 4 5 6 7 8 9 10 11 12 13 14 15 16
000
FTUS44 KSHV 211600 AAA
TAFTYR
TAF AMD
KTYR 211608Z 2116/2212 16010KT 5SM BR SCT003 OVC012
      TEMPO 2116/2118 3SM -RA BR OVC003
     FM211900 15010KT P6SM OVC013
     FM220000 14011KT P6SM OVC020
     FM220400 14011KT P6SM VCSH OVC015=

USA.gov is the U.S. government's official web portal to all federal, state and local government web resources and services.